Time;durP1;ratioP1;P1;durP2;ratioP2;P2;SDS_P1;SDS_P2;PMS_P1;PMS_P2;Temp;Humidity;BMP_temperature;BMP_pressure;BME280_temperature;BME280_humidity;BME280_pressure;Samples;Min_cycle;Max_cycle;Signal;HPM_P1;HPM_P2
2023/01/13 00:00:18;;;;;;;;;1.00;0.00;;;;;13.48;79.53;100695.50;4936771;28;45634;-64
2023/01/13 00:02:43;;;;;;;;;0.50;0.00;;;;;13.48;79.49;100693.72;4940844;28;45385;-64
2023/01/13 00:05:09;;;;;;;;;0.75;0.00;;;;;13.53;79.32;100707.78;4938524;28;45703;-64
2023/01/13 00:07:35;;;;;;;;;0.00;0.00;;;;;13.51;79.73;100696.25;4939413;28;45430;-64
2023/01/13 00:10:00;;;;;;;;;1.75;0.50;;;;;13.48;79.72;100701.75;4942356;28;48073;-64
2023/01/13 00:12:25;;;;;;;;;0.00;0.00;;;;;13.53;79.55;100733.72;4940161;28;45523;-64
2023/01/13 00:14:51;;;;;;;;;2.75;0.00;;;;;13.52;79.72;100737.34;4941751;28;45512;-64
2023/01/13 00:17:16;;;;;;;;;0.00;0.00;;;;;13.52;80.14;100737.34;4940957;28;45384;-64
2023/01/13 00:19:42;;;;;;;;;0.00;0.00;;;;;13.47;79.78;100736.69;4941264;28;46984;-64
2023/01/13 00:22:07;;;;;;;;;0.00;0.00;;;;;13.44;79.63;100708.19;4944311;28;45324;-64
2023/01/13 00:24:32;;;;;;;;;0.00;0.00;;;;;13.48;79.32;100712.47;4939003;28;45433;-64
2023/01/13 00:26:58;;;;;;;;;0.00;0.00;;;;;13.49;79.26;100714.22;4940231;28;45508;-64
2023/01/13 00:29:23;;;;;;;;;0.00;0.00;;;;;13.46;79.19;100710.78;4953249;28;47291;-64
2023/01/13 00:31:48;;;;;;;;;0.00;0.00;;;;;13.43;78.69;100713.59;4940266;28;45532;-64
2023/01/13 00:34:14;;;;;;;;;0.50;0.00;;;;;13.48;78.84;100723.22;4936787;28;45519;-64
2023/01/13 00:36:39;;;;;;;;;0.00;0.00;;;;;13.43;78.22;100706.47;4938200;28;45291;-64
2023/01/13 00:39:05;;;;;;;;;0.00;0.00;;;;;13.47;77.95;100713.41;4939468;28;45507;-64
2023/01/13 00:43:21;;;;;;;;;1.00;0.00;;;;;13.43;77.68;100705.56;4937680;28;45478;-64
2023/01/13 00:44:15;;;;;;;;;0.00;0.00;;;;;13.38;77.46;100705.81;4937143;28;45424;-64
2023/01/13 00:46:40;;;;;;;;;0.00;0.00;;;;;13.42;77.69;100714.56;4955181;28;45805;-64
2023/01/13 00:49:06;;;;;;;;;0.00;0.00;;;;;13.37;76.98;100703.19;4937912;28;45501;-64
2023/01/13 00:51:31;;;;;;;;;0.00;0.00;;;;;13.33;77.17;100686.34;4955079;28;45545;-64
2023/01/13 00:53:56;;;;;;;;;0.75;0.00;;;;;13.36;76.97;100696.94;4940256;28;45432;-64
2023/01/13 00:56:23;;;;;;;;;0.00;0.00;;;;;13.38;77.23;100694.19;4954202;28;45669;-64
2023/01/13 00:58:50;;;;;;;;;0.00;0.00;;;;;13.36;77.06;100693.38;4932948;28;48410;-64
2023/01/13 01:01:19;;;;;;;;;0.00;0.00;;;;;13.37;77.27;100695.13;4951593;28;45802;-64
2023/01/13 01:03:51;;;;;;;;;0.75;0.00;;;;;13.33;76.60;100700.63;4937216;28;45570;-64
2023/01/13 01:06:23;;;;;;;;;0.00;0.00;;;;;13.34;77.19;100710.41;4938939;28;45402;-64
2023/01/13 01:08:48;;;;;;;;;1.00;0.00;;;;;13.29;76.33;100706.16;4938690;28;46317;-64
2023/01/13 01:11:17;;;;;;;;;0.00;0.00;;;;;13.23;76.78;100693.00;4939251;28;45302;-64
2023/01/13 01:13:43;;;;;;;;;0.75;0.00;;;;;13.32;76.79;100711.44;4933460;28;45506;-64
2023/01/13 01:16:13;;;;;;;;;0.75;0.00;;;;;13.34;76.49;100714.91;4935840;28;45640;-64
2023/01/13 01:18:42;;;;;;;;;0.00;0.00;;;;;13.27;76.68;100703.53;4946577;28;46635;-64
2023/01/13 01:21:08;;;;;;;;;0.00;0.00;;;;;13.30;76.18;100708.78;4931343;28;45687;-64
2023/01/13 01:23:35;;;;;;;;;0.00;0.00;;;;;13.27;76.27;100710.72;4938692;28;45371;-64
2023/01/13 01:26:06;;;;;;;;;0.00;0.00;;;;;13.03;76.16;100668.00;4938282;28;45556;-64
2023/01/13 01:28:33;;;;;;;;;0.00;0.00;;;;;13.22;76.45;100705.56;4936015;28;46203;-64
2023/01/13 01:30:58;;;;;;;;;0.00;0.00;;;;;13.18;76.05;100695.94;4933206;28;45745;-64
2023/01/13 01:33:25;;;;;;;;;0.00;0.00;;;;;13.19;76.19;100707.50;4938779;28;46672;-64
2023/01/13 01:35:50;;;;;;;;;0.00;0.00;;;;;13.18;76.74;100709.31;4936719;28;45725;-64
2023/01/13 01:38:15;;;;;;;;;0.00;0.00;;;;;13.10;76.46;100682.00;4938632;28;45537;-64
2023/01/13 01:40:41;;;;;;;;;0.00;0.00;;;;;13.11;76.50;100691.75;4952822;28;45347;-64
2023/01/13 01:45:59;;;;;;;;;0.00;0.00;;;;;13.08;76.21;100706.16;4936523;28;45315;-64
2023/01/13 01:48:27;;;;;;;;;0.00;0.00;;;;;13.08;75.88;100695.44;4939459;28;45809;-64
2023/01/13 01:50:53;;;;;;;;;0.00;0.00;;;;;13.04;75.50;100687.59;4943566;28;45497;-64
2023/01/13 01:53:23;;;;;;;;;0.00;0.00;;;;;13.07;75.33;100695.50;4937004;28;45503;-64
2023/01/13 01:55:48;;;;;;;;;0.00;0.00;;;;;12.96;75.34;100677.22;4934551;28;45549;-64
2023/01/13 01:58:44;;;;;;;;;0.00;0.00;;;;;13.03;75.48;100697.47;4938031;28;45653;-64
2023/01/13 02:01:11;;;;;;;;;0.75;0.00;;;;;13.00;75.50;100696.69;4934147;28;45811;-64
2023/01/13 02:03:40;;;;;;;;;0.00;0.00;;;;;12.97;75.58;100695.91;4952129;28;45498;-64
2023/01/13 02:06:07;;;;;;;;;1.00;0.00;;;;;12.94;75.52;100697.84;4936471;28;45447;-64
2023/01/13 02:08:33;;;;;;;;;0.00;0.00;;;;;12.95;74.90;100707.63;4937396;28;45339;-64
2023/01/13 02:10:58;;;;;;;;;1.00;0.00;;;;;12.89;74.84;100719.47;4936225;28;45492;-64
2023/01/13 02:13:24;;;;;;;;;1.00;0.00;;;;;12.91;74.71;100728.34;4937855;28;45319;-64
2023/01/13 02:15:54;;;;;;;;;0.00;0.00;;;;;12.92;74.60;100716.66;4952759;28;45444;-64
2023/01/13 02:18:37;;;;;;;;;0.00;0.00;;;;;12.86;74.72;100708.88;4939086;28;46644;-64
2023/01/13 02:21:27;;;;;;;;;0.00;0.00;;;;;12.91;74.48;100720.31;4934963;28;45424;-64
2023/01/13 02:27:13;;;;;;;;;1.00;0.00;;;;;12.89;75.25;100730.19;4935552;28;45463;-64
2023/01/13 02:33:02;;;;;;;;;0.00;0.00;;;;;12.83;75.06;100729.56;4932596;28;45864;-64
2023/01/13 02:35:51;;;;;;;;;2.25;0.00;;;;;12.83;74.64;100730.47;4936154;28;45456;-64
2023/01/13 02:38:24;;;;;;;;;0.00;0.00;;;;;12.73;74.70;100721.03;4934140;28;45550;-64
2023/01/13 02:40:58;;;;;;;;;0.00;0.00;;;;;12.79;74.88;100735.06;4932818;28;46281;-64
2023/01/13 02:46:33;;;;;;;;;0.00;0.00;;;;;12.73;74.98;100737.09;4934905;28;45796;-64
2023/01/13 02:49:08;;;;;;;;;0.00;0.00;;;;;12.79;74.59;100736.88;4940955;28;45334;-64
2023/01/13 02:51:35;;;;;;;;;0.00;0.00;;;;;12.79;74.76;100736.88;4933834;28;45823;-64
2023/01/13 02:54:11;;;;;;;;;0.50;0.00;;;;;12.67;74.84;100713.28;4937770;28;45471;-64
2023/01/13 02:56:41;;;;;;;;;0.00;0.00;;;;;12.75;74.78;100743.31;4934274;28;46731;-64
2023/01/13 02:59:09;;;;;;;;;0.00;0.00;;;;;12.74;74.54;100742.41;4941617;28;45478;-64
2023/01/13 03:01:34;;;;;;;;;0.00;0.00;;;;;12.65;74.67;100739.25;4933195;28;46013;-64
2023/01/13 03:04:13;;;;;;;;;0.00;0.00;;;;;12.69;74.43;100756.94;4937120;28;46917;-64
2023/01/13 03:07:12;;;;;;;;;0.00;0.00;;;;;12.70;74.41;100753.34;4934763;28;45416;-64
2023/01/13 03:09:49;;;;;;;;;0.00;0.00;;;;;12.67;74.14;100751.63;4956415;28;45829;-64
2023/01/13 03:12:33;;;;;;;;;1.00;0.00;;;;;12.64;74.51;100754.44;4935702;28;46143;-64
2023/01/13 03:15:21;;;;;;;;;0.00;0.00;;;;;12.69;74.58;100767.66;4940524;28;45465;-64
2023/01/13 03:18:18;;;;;;;;;0.00;0.00;;;;;12.68;74.52;100774.81;4950734;28;45427;-64
2023/01/13 03:21:05;;;;;;;;;0.00;0.00;;;;;12.67;74.93;100766.84;4945838;28;45459;-64
2023/01/13 03:23:34;;;;;;;;;0.50;0.00;;;;;12.66;74.20;100770.44;4953255;28;46314;-64
2023/01/13 03:26:07;;;;;;;;;0.00;0.00;;;;;12.60;74.41;100763.53;4940085;28;45299;-64
2023/01/13 03:28:48;;;;;;;;;1.00;0.00;;;;;12.66;74.26;100771.31;4932984;28;46058;-64
2023/01/13 03:31:21;;;;;;;;;0.00;0.00;;;;;12.62;73.96;100767.03;4940363;28;45406;-64
2023/01/13 03:33:54;;;;;;;;;0.00;0.00;;;;;12.66;74.10;100773.13;4938914;28;46386;-64
2023/01/13 03:36:24;;;;;;;;;0.00;0.00;;;;;12.58;74.04;100758.25;4935651;28;45685;-64
2023/01/13 03:38:57;;;;;;;;;0.00;0.00;;;;;12.63;73.68;100776.81;4938555;28;45887;-64
2023/01/13 03:41:53;;;;;;;;;0.75;0.00;;;;;12.62;74.02;100772.38;4932705;28;45410;-64
2023/01/13 03:44:28;;;;;;;;;1.00;0.00;;;;;12.52;73.81;100768.34;4937695;28;46123;-64
2023/01/13 03:47:23;;;;;;;;;2.75;0.00;;;;;12.59;73.88;100788.56;4939398;28;45607;-64
2023/01/13 03:50:00;;;;;;;;;0.00;0.00;;;;;12.60;73.48;100779.63;4946737;28;45447;-64
2023/01/13 03:52:36;;;;;;;;;0.00;0.00;;;;;12.60;73.48;100782.28;4940110;28;45660;-64
2023/01/13 03:55:17;;;;;;;;;0.00;0.00;;;;;12.65;73.65;100779.44;4950456;28;46105;-64
2023/01/13 03:57:51;;;;;;;;;2.00;0.00;;;;;12.65;73.45;100764.22;4935532;28;45497;-64
2023/01/13 04:00:18;;;;;;;;;0.00;0.00;;;;;12.57;73.83;100761.84;4943484;28;45459;-64
2023/01/13 04:03:06;;;;;;;;;0.00;0.00;;;;;12.55;73.07;100746.78;4939095;28;45455;-64
2023/01/13 04:05:38;;;;;;;;;0.25;0.00;;;;;12.54;73.41;100761.97;4936623;28;46249;-64
2023/01/13 04:08:21;;;;;;;;;1.25;0.00;;;;;12.47;73.38;100768.50;4940072;28;45587;-64
2023/01/13 04:11:06;;;;;;;;;0.00;0.00;;;;;12.51;73.60;100774.63;4939770;28;45596;-64
2023/01/13 04:13:38;;;;;;;;;0.50;0.00;;;;;12.52;73.32;100781.72;4937752;28;45437;-64
2023/01/13 04:16:06;;;;;;;;;1.00;0.00;;;;;12.48;73.60;100778.31;4952387;28;46211;-64
2023/01/13 04:18:31;;;;;;;;;0.00;0.00;;;;;12.46;73.20;100784.63;4940527;28;45461;-64
2023/01/13 04:20:59;;;;;;;;;1.00;0.00;;;;;12.46;73.05;100782.81;4938052;28;45415;-64
2023/01/13 04:23:26;;;;;;;;;1.50;0.00;;;;;12.52;72.98;100789.75;4939992;28;45406;-64
2023/01/13 04:25:52;;;;;;;;;1.00;0.00;;;;;12.55;72.69;100789.63;4936892;28;47046;-64
2023/01/13 04:28:18;;;;;;;;;0.00;0.00;;;;;12.55;73.24;100801.22;4936424;28;45532;-64
2023/01/13 04:30:44;;;;;;;;;1.25;0.00;;;;;12.54;72.83;100801.28;4940593;28;45481;-64
2023/01/13 04:33:11;;;;;;;;;0.00;0.00;;;;;12.56;72.99;100804.75;4939832;28;45560;-64
2023/01/13 04:35:37;;;;;;;;;0.00;0.00;;;;;12.54;72.55;100802.13;4940539;28;46325;-64
2023/01/13 04:38:12;;;;;;;;;0.00;0.00;;;;;12.58;72.62;100806.44;4939454;28;45520;-64
2023/01/13 04:40:39;;;;;;;;;0.50;0.00;;;;;12.62;72.15;100817.91;4939596;28;45373;-64
2023/01/13 04:43:04;;;;;;;;;0.00;0.00;;;;;12.58;72.16;100808.25;4938059;28;45434;-64
2023/01/13 04:45:30;;;;;;;;;0.00;0.00;;;;;12.58;71.94;100818.97;4935860;28;45969;-64
2023/01/13 04:47:55;;;;;;;;;1.00;0.00;;;;;12.58;71.88;100822.53;4939601;28;45422;-64
2023/01/13 04:50:21;;;;;;;;;2.50;0.00;;;;;12.59;71.81;100820.69;4943889;28;45523;-64
2023/01/13 04:52:51;;;;;;;;;0.50;0.00;;;;;12.57;71.76;100820.75;4951988;28;45684;-64
2023/01/13 04:55:17;;;;;;;;;0.00;0.00;;;;;12.57;71.50;100823.44;4936241;28;46174;-64
2023/01/13 04:57:43;;;;;;;;;2.00;0.00;;;;;12.54;71.17;100828.91;4936755;28;46168;-64
2023/01/13 05:00:11;;;;;;;;;0.00;0.00;;;;;12.50;71.11;100826.44;4936093;28;45596;-64
2023/01/13 05:02:37;;;;;;;;;0.75;0.00;;;;;12.46;70.81;100827.47;4937056;28;45559;-64
2023/01/13 05:05:02;;;;;;;;;0.00;0.00;;;;;12.52;70.65;100837.94;4940285;28;46176;-64
2023/01/13 05:07:28;;;;;;;;;0.25;0.00;;;;;12.49;70.76;100825.53;4936485;28;46161;-64
2023/01/13 05:09:53;;;;;;;;;1.25;1.00;;;;;12.44;70.37;100826.66;4938817;28;45399;-64
2023/01/13 05:17:48;;;;;;;;;0.00;0.00;;;;;12.33;69.97;100837.75;4938168;28;45465;-64
2023/01/13 05:20:13;;;;;;;;;0.25;0.00;;;;;12.29;70.30;100833.47;4935113;28;45360;-64
2023/01/13 05:25:26;;;;;;;;;1.25;0.00;;;;;12.31;70.16;100843.22;4935360;28;45363;-64
2023/01/13 05:27:54;;;;;;;;;1.50;0.00;;;;;12.27;69.98;100838.03;4939981;28;45593;-64
2023/01/13 05:30:21;;;;;;;;;1.00;0.00;;;;;12.33;69.86;100854.72;4936736;28;46084;-64
2023/01/13 05:32:47;;;;;;;;;1.25;1.25;;;;;12.33;69.72;100867.22;4938048;28;45666;-64
2023/01/13 05:35:14;;;;;;;;;0.00;0.00;;;;;12.27;69.88;100867.47;4940472;28;45724;-64
2023/01/13 05:37:41;;;;;;;;;2.00;0.00;;;;;12.29;69.74;100876.31;4939594;28;45463;-64
2023/01/13 05:43:20;;;;;;;;;0.75;0.75;;;;;12.25;69.95;100888.94;4938353;28;45622;-64
2023/01/13 05:46:07;;;;;;;;;0.50;0.50;;;;;12.15;69.72;100866.97;4929169;28;48262;-64
2023/01/13 05:48:36;;;;;;;;;0.00;0.00;;;;;12.26;69.76;100887.13;4937834;28;46070;-64
2023/01/13 05:51:02;;;;;;;;;0.75;0.00;;;;;12.22;69.66;100881.00;4936300;28;45459;-64
2023/01/13 05:53:28;;;;;;;;;0.00;0.00;;;;;12.12;69.47;100888.50;4937475;28;45481;-64
2023/01/13 05:55:54;;;;;;;;;0.00;0.00;;;;;12.17;69.55;100886.53;4938185;28;45330;-64
2023/01/13 05:58:22;;;;;;;;;0.75;0.00;;;;;12.19;69.52;100910.56;4939630;28;45819;-64
2023/01/13 06:00:48;;;;;;;;;3.25;0.00;;;;;12.17;69.03;100905.25;4938025;28;45374;-64
2023/01/13 06:03:14;;;;;;;;;0.50;0.00;;;;;12.10;68.95;100901.06;4935512;28;46066;-64
2023/01/13 06:05:41;;;;;;;;;0.00;0.00;;;;;12.11;69.10;100897.47;4939158;28;46113;-64
2023/01/13 06:08:07;;;;;;;;;2.00;0.00;;;;;12.10;68.90;100906.41;4936718;28;45492;-64
2023/01/13 06:10:33;;;;;;;;;0.00;0.00;;;;;12.03;68.78;100905.75;4949967;28;45580;-64
2023/01/13 06:12:59;;;;;;;;;1.50;1.00;;;;;12.07;68.86;100913.69;4938935;28;45483;-64
2023/01/13 06:15:24;;;;;;;;;1.00;0.00;;;;;12.02;68.59;100905.81;4939402;28;46194;-64
2023/01/13 06:17:50;;;;;;;;;2.00;0.25;;;;;12.01;69.05;100912.97;4943205;28;45427;-64
2023/01/13 06:20:16;;;;;;;;;0.75;0.75;;;;;12.03;68.97;100926.31;4945508;28;45437;-64
2023/01/13 06:22:45;;;;;;;;;1.75;0.00;;;;;11.92;69.04;100928.47;4938008;28;45569;-64
2023/01/13 06:25:22;;;;;;;;;2.00;0.25;;;;;12.02;68.88;100945.94;4939830;28;46487;-64
2023/01/13 06:27:48;;;;;;;;;0.00;0.00;;;;;12.01;68.80;100941.50;4938419;28;45888;-64
2023/01/13 06:30:13;;;;;;;;;1.00;0.00;;;;;11.94;69.32;100943.53;4953168;28;45517;-64
2023/01/13 06:32:44;;;;;;;;;1.00;1.00;;;;;12.03;68.64;100958.41;4937664;28;45592;-64
2023/01/13 06:35:14;;;;;;;;;1.50;0.75;;;;;12.04;68.49;100954.78;4931833;28;45620;-64
2023/01/13 06:37:43;;;;;;;;;1.75;1.75;;;;;11.95;68.71;100947.97;4938632;28;45690;-64
2023/01/13 06:40:10;;;;;;;;;5.50;4.25;;;;;11.95;68.59;100961.34;4941357;28;45669;-64
2023/01/13 06:45:22;;;;;;;;;4.50;2.75;;;;;11.91;68.25;100970.41;4936870;28;45482;-64
2023/01/13 06:47:47;;;;;;;;;2.00;2.00;;;;;11.91;68.87;100966.81;4919440;28;46203;-64
2023/01/13 06:50:12;;;;;;;;;5.00;2.00;;;;;11.91;68.93;100964.13;4938163;28;45550;-64
2023/01/13 06:52:38;;;;;;;;;3.00;3.00;;;;;11.87;68.32;100956.22;4950811;28;45512;-64
2023/01/13 06:55:04;;;;;;;;;3.50;3.50;;;;;11.91;68.73;100969.47;4950960;28;45386;-64
2023/01/13 06:57:29;;;;;;;;;4.75;2.00;;;;;11.91;68.47;100972.16;4935497;28;45565;-64
2023/01/13 06:59:54;;;;;;;;;5.25;2.00;;;;;11.91;68.44;100969.47;4951885;28;45392;-63
2023/01/13 07:02:20;;;;;;;;;4.50;2.25;;;;;11.87;68.25;100968.72;4935568;28;45350;-63
2023/01/13 07:04:45;;;;;;;;;3.75;1.00;;;;;11.91;68.51;100986.47;4936185;28;45382;-63
2023/01/13 07:07:11;;;;;;;;;1.75;1.00;;;;;11.89;68.35;100988.25;4937024;28;45403;-63
2023/01/13 07:09:37;;;;;;;;;2.75;1.75;;;;;11.91;68.46;100994.50;4935828;28;45549;-63
2023/01/13 07:12:03;;;;;;;;;1.00;1.00;;;;;11.87;68.39;100985.63;4933928;28;45627;-63
2023/01/13 07:17:12;;;;;;;;;0.50;0.00;;;;;11.86;68.04;101010.66;4935197;28;45421;-63
2023/01/13 07:19:37;;;;;;;;;2.00;1.00;;;;;11.82;68.19;101006.31;4935634;28;45536;-63
2023/01/13 07:22:03;;;;;;;;;1.25;1.00;;;;;11.80;68.19;101007.31;4934611;28;45533;-63
2023/01/13 07:24:28;;;;;;;;;2.00;1.00;;;;;11.86;67.86;101025.81;4936643;28;46786;-63
2023/01/13 07:26:54;;;;;;;;;1.00;0.00;;;;;11.83;68.47;101036.63;4948400;28;45604;-63
2023/01/13 07:29:19;;;;;;;;;0.00;0.00;;;;;11.82;68.40;101024.16;4936005;28;45726;-64
2023/01/13 07:31:45;;;;;;;;;2.00;1.00;;;;;11.83;68.24;101020.59;4936563;28;45318;-64
2023/01/13 07:34:10;;;;;;;;;0.00;0.00;;;;;11.85;68.15;101024.94;4937236;28;45698;-64
2023/01/13 07:36:36;;;;;;;;;0.75;0.75;;;;;11.84;68.16;101030.34;4944919;28;45403;-64
2023/01/13 07:39:02;;;;;;;;;1.00;1.00;;;;;11.81;68.27;101034.00;4938093;28;45296;-64
2023/01/13 07:44:11;;;;;;;;;2.75;1.50;;;;;11.80;68.36;101048.28;4939237;28;45357;-64
2023/01/13 07:46:37;;;;;;;;;2.25;0.50;;;;;11.77;68.50;101043.03;4937469;28;45593;-64
2023/01/13 07:49:04;;;;;;;;;2.25;0.00;;;;;11.71;68.46;101037.91;4932404;28;45333;-64
2023/01/13 07:51:29;;;;;;;;;0.50;0.00;;;;;11.72;68.56;101047.66;4939354;28;45540;-64
2023/01/13 07:53:55;;;;;;;;;1.00;0.00;;;;;11.77;68.64;101050.19;4939294;28;46194;-65
2023/01/13 07:56:20;;;;;;;;;2.25;1.00;;;;;11.75;68.67;101060.94;4938921;28;45463;-64
2023/01/13 07:58:49;;;;;;;;;5.00;1.00;;;;;11.77;68.55;101064.44;4946641;28;45331;-64
2023/01/13 08:01:16;;;;;;;;;3.25;0.25;;;;;11.76;68.54;101067.16;4942738;28;45503;-64
2023/01/13 08:03:41;;;;;;;;;2.25;0.75;;;;;11.81;68.34;101098.19;4941123;28;46243;-65
2023/01/13 08:06:08;;;;;;;;;0.75;0.00;;;;;11.79;68.51;101094.66;4939749;28;45715;-65
2023/01/13 08:08:34;;;;;;;;;5.00;1.00;;;;;11.74;68.46;101077.91;4939936;28;45444;-65
2023/01/13 08:11:01;;;;;;;;;1.00;1.00;;;;;11.67;68.93;101073.69;4939096;28;45476;-64
2023/01/13 08:13:26;;;;;;;;;2.00;2.00;;;;;11.74;68.80;101080.56;4940766;28;45487;-65
2023/01/13 08:15:58;;;;;;;;;0.50;0.50;;;;;11.74;68.50;101077.03;4940699;28;45345;-64
2023/01/13 08:18:23;;;;;;;;;0.75;0.00;;;;;11.68;69.10;101081.66;4939279;28;45476;-65
2023/01/13 08:20:53;;;;;;;;;3.00;1.00;;;;;11.75;68.79;101090.34;4936370;28;45365;-64
2023/01/13 08:23:20;;;;;;;;;3.50;2.50;;;;;11.66;68.74;101083.50;4936025;28;47115;-64
2023/01/13 08:25:46;;;;;;;;;1.00;1.00;;;;;11.70;68.89;101094.97;4954417;28;45382;-64
2023/01/13 08:28:12;;;;;;;;;0.75;0.75;;;;;11.71;68.64;101104.75;4943220;28;45457;-64
2023/01/13 08:30:38;;;;;;;;;2.00;1.00;;;;;11.73;68.50;101120.72;4937705;28;45565;-64
2023/01/13 08:33:09;;;;;;;;;5.00;1.00;;;;;11.66;68.92;101107.56;4930029;28;46366;-64
2023/01/13 08:35:36;;;;;;;;;2.00;1.00;;;;;11.73;68.98;101115.38;4937858;28;46920;-64
2023/01/13 08:38:02;;;;;;;;;3.50;1.50;;;;;11.70;68.85;101110.16;4938265;28;45399;-64
2023/01/13 08:40:27;;;;;;;;;1.75;1.25;;;;;11.76;68.96;101112.63;4939888;28;45613;-64
2023/01/13 08:42:54;;;;;;;;;3.00;1.50;;;;;11.72;69.13;101108.31;4941036;28;46055;-64
2023/01/13 08:45:20;;;;;;;;;2.00;1.00;;;;;11.80;68.96;101128.53;4939434;28;46235;-64
2023/01/13 08:47:45;;;;;;;;;0.75;0.75;;;;;11.79;68.71;101120.56;4941051;28;45464;-64
2023/01/13 08:50:11;;;;;;;;;2.75;2.75;;;;;11.78;68.73;101119.69;4944714;28;45424;-64
2023/01/13 08:52:36;;;;;;;;;1.00;0.75;;;;;11.75;68.67;101125.13;4939853;28;46079;-64
2023/01/13 08:55:02;;;;;;;;;2.00;1.00;;;;;11.71;68.71;101111.88;4941786;28;45551;-64
2023/01/13 08:57:27;;;;;;;;;2.00;1.00;;;;;11.68;68.43;101096.84;4939894;28;45775;-64
2023/01/13 08:59:52;;;;;;;;;1.00;1.00;;;;;11.73;68.47;101118.06;4950143;28;45653;-64
2023/01/13 09:02:20;;;;;;;;;2.25;0.25;;;;;11.72;69.11;101129.69;4937627;28;46363;-64
2023/01/13 09:04:46;;;;;;;;;3.50;1.00;;;;;11.72;68.58;101124.34;4955742;28;45257;-64
2023/01/13 09:07:11;;;;;;;;;2.00;0.00;;;;;11.64;68.65;101117.44;4955630;28;45569;-64
2023/01/13 09:09:38;;;;;;;;;1.50;0.25;;;;;11.69;68.95;101138.69;4940261;28;45561;-64
2023/01/13 09:14:48;;;;;;;;;1.50;0.00;;;;;11.60;68.88;101120.25;4941201;28;45531;-64
2023/01/13 09:17:13;;;;;;;;;0.00;0.00;;;;;11.62;68.71;101131.78;4938836;28;45339;-64
2023/01/13 09:19:39;;;;;;;;;4.00;1.75;;;;;11.67;68.50;101148.56;4952337;28;45450;-64
2023/01/13 09:22:05;;;;;;;;;1.00;1.00;;;;;11.63;68.74;101146.91;4940317;28;46592;-64
2023/01/13 09:24:31;;;;;;;;;2.25;1.50;;;;;11.58;68.88;101130.13;4939673;28;45346;-64
2023/01/13 09:26:56;;;;;;;;;2.75;2.50;;;;;11.69;68.72;101152.06;4940032;28;45830;-64
2023/01/13 09:29:25;;;;;;;;;3.50;1.75;;;;;11.63;68.57;101147.78;4940453;28;45452;-67
2023/01/13 09:31:50;;;;;;;;;2.75;0.25;;;;;11.50;68.74;101131.22;4953968;28;47324;-66
2023/01/13 09:37:03;;;;;;;;;1.50;1.00;;;;;11.57;68.42;101139.06;4939916;28;45374;-65
2023/01/13 09:39:28;;;;;;;;;0.00;0.00;;;;;11.65;68.48;101150.41;4946717;28;45314;-65
2023/01/13 09:45:06;;;;;;;;;0.00;0.00;;;;;11.69;68.19;101178.78;4940406;28;45746;-64
2023/01/13 09:47:44;;;;;;;;;4.75;1.00;;;;;11.72;68.22;101170.69;4940917;28;45396;-64
2023/01/13 09:50:18;;;;;;;;;1.75;0.00;;;;;11.75;68.16;101173.28;4941041;28;45354;-64
2023/01/13 09:52:43;;;;;;;;;1.00;1.00;;;;;11.73;68.02;101169.78;4939691;28;45412;-64
2023/01/13 09:55:18;;;;;;;;;2.50;1.00;;;;;11.75;68.18;101178.63;4939905;28;45354;-64
2023/01/13 09:57:43;;;;;;;;;0.75;0.75;;;;;11.72;67.82;101175.16;4955733;28;45431;-64
2023/01/13 10:00:22;;;;;;;;;0.75;0.75;;;;;11.76;67.89;101193.75;4939192;28;45334;-64
2023/01/13 10:03:13;;;;;;;;;1.00;1.00;;;;;11.78;67.45;101194.56;4935963;28;47444;-64
2023/01/13 10:05:59;;;;;;;;;0.00;0.00;;;;;11.80;67.61;101183.84;4939759;28;45715;-65
2023/01/13 10:08:25;;;;;;;;;1.75;1.00;;;;;11.81;67.34;101183.78;4937732;28;45444;-64
2023/01/13 10:10:54;;;;;;;;;2.00;0.50;;;;;11.80;67.53;101194.53;4949538;28;45653;-64
2023/01/13 10:13:25;;;;;;;;;3.25;1.75;;;;;11.84;67.44;101206.88;4940565;28;46318;-64
2023/01/13 10:16:04;;;;;;;;;1.25;0.00;;;;;11.83;66.99;101203.34;4939630;28;45558;-64
2023/01/13 10:18:43;;;;;;;;;0.00;0.00;;;;;11.85;66.73;101204.16;4937122;28;45461;-64
2023/01/13 10:21:25;;;;;;;;;0.75;0.75;;;;;11.82;66.59;101212.28;4937676;28;45352;-64
2023/01/13 10:24:02;;;;;;;;;2.75;1.00;;;;;11.84;66.74;101213.13;4954361;28;46855;-64
2023/01/13 10:26:58;;;;;;;;;0.00;0.00;;;;;11.86;66.64;101216.63;4938568;28;45573;-64
2023/01/13 10:29:25;;;;;;;;;1.00;1.00;;;;;11.82;66.77;101216.75;4938308;28;45477;-64
2023/01/13 10:31:56;;;;;;;;;1.50;0.75;;;;;11.86;66.60;101202.34;4938306;28;45432;-64
2023/01/13 10:34:22;;;;;;;;;0.00;0.00;;;;;11.92;67.06;101206.69;4938328;28;46308;-64
2023/01/13 10:36:59;;;;;;;;;1.00;0.25;;;;;11.96;66.71;101224.38;4939164;28;45367;-64
2023/01/13 10:39:25;;;;;;;;;0.00;0.00;;;;;11.96;66.30;101219.94;4958715;28;45545;-64
2023/01/13 10:42:01;;;;;;;;;2.75;0.00;;;;;11.96;66.47;101222.59;4937269;28;45265;-64
2023/01/13 10:44:27;;;;;;;;;1.75;0.00;;;;;11.97;66.71;101236.84;4939307;28;45587;-64
2023/01/13 10:46:58;;;;;;;;;1.75;0.00;;;;;11.98;66.54;101244.84;4938237;28;45396;-64
2023/01/13 10:49:38;;;;;;;;;0.75;0.00;;;;;12.00;66.40;101232.28;4937980;28;45363;-64
2023/01/13 10:52:24;;;;;;;;;2.00;1.00;;;;;12.02;66.47;101234.91;4935221;28;45835;-64
2023/01/13 10:54:51;;;;;;;;;1.75;1.00;;;;;12.03;66.65;101248.25;4955540;28;48343;-64
2023/01/13 10:57:22;;;;;;;;;0.75;0.00;;;;;12.07;66.37;101251.69;4938028;28;45560;-64
2023/01/13 10:59:49;;;;;;;;;0.00;0.00;;;;;12.15;66.45;101263.03;4941028;28;45334;-64
2023/01/13 11:02:17;;;;;;;;;0.00;0.00;;;;;12.17;66.28;101273.72;4936540;28;45507;-65
2023/01/13 11:04:54;;;;;;;;;0.50;0.50;;;;;12.14;66.71;101281.81;4937885;28;45521;-64
2023/01/13 11:07:40;;;;;;;;;0.50;0.25;;;;;12.13;66.75;101275.59;4952989;28;45989;-64
2023/01/13 11:10:21;;;;;;;;;1.00;1.00;;;;;12.17;66.59;101287.97;4940949;28;45389;-64
2023/01/13 11:13:17;;;;;;;;;2.00;0.00;;;;;12.20;66.50;101290.53;4931768;28;45519;-64
2023/01/13 11:15:55;;;;;;;;;0.50;0.50;;;;;12.21;66.74;101284.28;4935354;28;45500;-64
2023/01/13 11:18:37;;;;;;;;;3.00;1.00;;;;;12.18;66.79;101283.50;4940398;28;45452;-64
2023/01/13 11:21:16;;;;;;;;;1.00;0.00;;;;;12.18;66.55;101280.81;4948876;28;45585;-64
2023/01/13 11:23:48;;;;;;;;;3.00;1.50;;;;;12.15;66.39;101275.56;4929361;28;45556;-64
2023/01/13 11:26:25;;;;;;;;;2.25;1.00;;;;;12.14;66.96;101277.34;4942921;28;46220;-64
2023/01/13 11:29:10;;;;;;;;;0.00;0.00;;;;;12.16;66.59;101275.53;4929252;28;45655;-64
2023/01/13 11:31:41;;;;;;;;;2.00;0.00;;;;;12.26;66.67;101291.28;4954460;28;45591;-65
2023/01/13 11:34:24;;;;;;;;;0.00;0.00;;;;;12.29;66.89;101293.88;4942261;28;45358;-64
2023/01/13 11:36:52;;;;;;;;;4.00;1.00;;;;;12.30;66.43;101290.28;4941048;28;45660;-64
2023/01/13 11:39:28;;;;;;;;;3.00;2.50;;;;;12.29;66.36;101297.41;4957020;28;45487;-64
2023/01/13 11:42:22;;;;;;;;;1.75;0.00;;;;;12.31;66.23;101290.22;4940804;28;45450;-64
2023/01/13 11:44:53;;;;;;;;;0.75;0.75;;;;;12.31;66.26;101298.25;4941920;28;45419;-63
2023/01/13 11:47:22;;;;;;;;;0.75;0.25;;;;;12.30;65.88;101296.50;4940519;28;46140;-64
2023/01/13 11:49:48;;;;;;;;;3.75;1.00;;;;;12.31;65.95;101302.72;4943136;28;45332;-65
2023/01/13 11:52:47;;;;;;;;;1.75;1.00;;;;;12.36;65.74;101301.69;4957450;28;45495;-64
2023/01/13 11:55:25;;;;;;;;;2.00;1.50;;;;;12.41;65.55;101296.16;4940262;28;45432;-65
2023/01/13 11:58:14;;;;;;;;;2.00;0.75;;;;;12.42;64.93;101292.56;4947718;28;46116;-64
2023/01/13 12:01:00;;;;;;;;;2.00;1.00;;;;;12.43;64.13;101307.72;4942398;28;45573;-65
2023/01/13 12:03:34;;;;;;;;;0.50;0.00;;;;;12.40;63.78;101307.81;4965676;28;45411;-64
2023/01/13 12:06:32;;;;;;;;;1.00;1.00;;;;;12.40;63.61;101295.28;4931625;28;45321;-64
2023/01/13 12:09:21;;;;;;;;;1.25;0.75;;;;;12.39;64.01;101298.88;4944691;28;46230;-65
2023/01/13 12:12:19;;;;;;;;;1.00;0.00;;;;;12.43;64.17;101291.66;4932368;28;45337;-65
2023/01/13 12:15:09;;;;;;;;;1.00;1.00;;;;;12.44;63.58;101295.19;4943011;28;45315;-65
2023/01/13 12:17:43;;;;;;;;;0.25;0.25;;;;;12.37;63.63;101278.44;4957400;28;45803;-65
2023/01/13 12:20:17;;;;;;;;;4.50;1.50;;;;;12.46;63.19;101283.50;4941272;28;46264;-65